Time;durP1;ratioP1;P1;durP2;ratioP2;P2;SDS_P1;SDS_P2;PMS_P1;PMS_P2;Temp;Humidity;BMP_temperature;BMP_pressure;BME280_temperature;BME280_humidity;BME280_pressure;Samples;Min_cycle;Max_cycle;Signal;HPM_P1;HPM_P2
2022/06/17 00:01:19;;;;;;;5.30;4.60;;;;;;;14.63;68.58;100396.70;130297;1267;108655;-68
2022/06/17 00:04:25;;;;;;;5.40;4.90;;;;;;;14.57;68.60;100393.75;130310;1268;107762;-68
2022/06/17 00:07:30;;;;;;;5.50;4.60;;;;;;;14.52;68.78;100389.26;130266;1267;108820;-67
2022/06/17 00:10:35;;;;;;;6.10;4.10;;;;;;;14.48;68.67;100387.97;130284;1268;108718;-67
2022/06/17 00:13:40;;;;;;;4.90;3.80;;;;;;;14.45;68.98;100390.73;130327;1267;108873;-67
2022/06/17 00:16:47;;;;;;;5.50;4.80;;;;;;;14.48;68.80;100388.46;130345;1268;108612;-67
2022/06/17 00:19:52;;;;;;;4.70;4.10;;;;;;;14.50;68.92;100394.27;130312;1267;108643;-68
2022/06/17 00:22:58;;;;;;;4.80;4.40;;;;;;;14.52;68.76;100395.40;130325;1268;108358;-69
2022/06/17 00:26:03;;;;;;;4.70;4.30;;;;;;;14.50;68.67;100395.00;130319;1268;108788;-69
2022/06/17 00:29:12;;;;;;;5.40;4.60;;;;;;;14.46;68.50;100396.04;130347;1268;108757;-67
2022/06/17 00:32:17;;;;;;;5.60;4.20;;;;;;;14.42;68.68;100393.13;130371;1267;108704;-67
2022/06/17 00:35:23;;;;;;;3.90;3.50;;;;;;;14.35;68.70;100398.86;130271;1268;108688;-68
2022/06/17 00:38:33;;;;;;;3.50;3.20;;;;;;;14.29;68.93;100399.73;130267;1268;108756;-69
2022/06/17 00:41:40;;;;;;;3.80;3.40;;;;;;;14.26;68.85;100405.70;130262;1268;108797;-67
2022/06/17 00:44:52;;;;;;;3.70;3.30;;;;;;;14.26;68.94;100407.65;130317;1267;108919;-68
2022/06/17 00:48:03;;;;;;;3.80;3.40;;;;;;;14.26;69.00;100410.50;130212;1268;109108;-68
2022/06/17 00:51:16;;;;;;;4.40;3.70;;;;;;;14.25;69.05;100412.67;130290;1267;108847;-68
2022/06/17 00:54:25;;;;;;;4.40;4.00;;;;;;;14.23;69.17;100413.51;130291;1268;108740;-69
2022/06/17 00:57:35;;;;;;;4.60;4.20;;;;;;;14.19;69.06;100414.52;130318;1267;108972;-68
2022/06/17 01:00:41;;;;;;;4.10;3.70;;;;;;;14.12;69.00;100413.27;130224;1267;108708;-68
2022/06/17 01:03:50;;;;;;;4.60;3.50;;;;;;;14.04;69.20;100416.19;130290;1267;108789;-67
2022/06/17 01:07:14;;;;;;;5.10;3.70;;;;;;;13.96;69.21;100412.73;130337;1268;108827;-68
2022/06/17 01:10:20;;;;;;;4.10;3.60;;;;;;;13.88;69.24;100412.89;130250;1267;108832;-68
2022/06/17 01:13:26;;;;;;;5.20;3.80;;;;;;;13.84;69.24;100412.84;130329;1268;108686;-68
2022/06/17 01:16:36;;;;;;;4.00;3.60;;;;;;;13.82;69.14;100418.98;130338;1268;108825;-69
2022/06/17 01:19:50;;;;;;;5.20;4.10;;;;;;;13.79;69.16;100425.95;130323;1268;108749;-69
2022/06/17 01:23:04;;;;;;;4.70;4.20;;;;;;;13.72;69.10;100432.36;130361;1268;108688;-68
2022/06/17 01:26:10;;;;;;;4.80;4.40;;;;;;;13.64;69.26;100434.58;130202;1268;108660;-70
2022/06/17 01:29:16;;;;;;;4.10;3.70;;;;;;;13.59;69.23;100436.93;130165;1268;108091;-69
2022/06/17 01:32:26;;;;;;;6.30;4.50;;;;;;;13.53;69.14;100436.23;130299;1267;109172;-68
2022/06/17 01:35:36;;;;;;;4.10;3.70;;;;;;;13.46;69.08;100439.69;130309;1267;107685;-68
2022/06/17 01:38:45;;;;;;;4.00;3.60;;;;;;;13.41;69.06;100444.57;130143;1267;108984;-70
2022/06/17 01:41:52;;;;;;;5.40;3.30;;;;;;;13.36;69.15;100447.92;130331;1267;108651;-69
2022/06/17 01:44:58;;;;;;;5.90;3.70;;;;;;;13.33;69.09;100448.05;130382;1267;107534;-68
2022/06/17 01:48:03;;;;;;;4.10;3.70;;;;;;;13.28;69.19;100454.65;130151;1267;108585;-68
2022/06/17 01:51:11;;;;;;;4.20;3.80;;;;;;;13.25;69.10;100455.00;130204;1268;108708;-68
2022/06/17 01:54:21;;;;;;;4.60;4.00;;;;;;;13.18;69.09;100455.00;130234;1267;108708;-67
2022/06/17 01:57:32;;;;;;;4.60;4.00;;;;;;;13.12;69.09;100457.67;130202;1268;107300;-68
2022/06/17 02:00:40;;;;;;;4.20;3.80;;;;;;;13.08;69.08;100458.09;130165;1268;108682;-68
2022/06/17 02:03:52;;;;;;;5.00;3.80;;;;;;;13.03;69.19;100467.77;130246;1265;108294;-68
2022/06/17 02:07:03;;;;;;;4.90;3.90;;;;;;;12.95;68.87;100468.04;130393;1267;108675;-70
2022/06/17 02:10:10;;;;;;;5.10;3.70;;;;;;;12.85;69.17;100469.27;130288;1267;108792;-70
2022/06/17 02:13:17;;;;;;;4.90;3.40;;;;;;;12.82;69.28;100470.67;130350;1267;106424;-70
2022/06/17 02:16:48;;;;;;;4.50;3.70;;;;;;;12.81;69.19;100469.75;130157;1268;108799;-71
2022/06/17 02:20:07;;;;;;;4.40;4.00;;;;;;;12.79;69.24;100476.14;130331;1268;108871;-67
2022/06/17 02:23:12;;;;;;;4.50;3.80;;;;;;;12.79;69.26;100481.69;130258;1268;108617;-68
2022/06/17 02:26:18;;;;;;;6.30;3.90;;;;;;;12.75;69.18;100481.88;130189;1268;108750;-68
2022/06/17 02:29:24;;;;;;;4.20;3.80;;;;;;;12.69;69.16;100485.58;130190;1268;108917;-67
2022/06/17 02:32:32;;;;;;;4.40;3.50;;;;;;;12.66;69.01;100488.77;130380;1268;108762;-67
2022/06/17 02:35:43;;;;;;;4.60;4.10;;;;;;;12.65;69.21;100492.65;130313;1267;108661;-66
2022/06/17 02:38:49;;;;;;;5.60;3.90;;;;;;;12.64;69.18;100493.64;130375;1268;107837;-68
2022/06/17 02:41:55;;;;;;;5.10;4.30;;;;;;;12.62;69.23;100494.73;130308;1268;108677;-67
2022/06/17 02:45:05;;;;;;;4.60;4.10;;;;;;;12.60;69.19;100495.16;130188;1267;108847;-68
2022/06/17 02:48:19;;;;;;;4.60;3.70;;;;;;;12.56;69.03;100502.61;130039;1267;388971;-70
2022/06/17 02:51:27;;;;;;;3.80;3.40;;;;;;;12.56;69.22;100510.50;130323;1268;108828;-70
2022/06/17 02:54:42;;;;;;;4.00;3.60;;;;;;;12.57;69.30;100510.17;130284;1268;108899;-69
2022/06/17 02:57:49;;;;;;;4.50;3.80;;;;;;;12.59;69.30;100509.80;130406;1268;108773;-70
2022/06/17 03:00:57;;;;;;;4.20;3.80;;;;;;;12.64;69.33;100515.80;130180;1268;108736;-70
2022/06/17 03:04:07;;;;;;;5.60;4.60;;;;;;;12.68;69.31;100513.58;130384;1268;108652;-70
2022/06/17 03:07:15;;;;;;;4.20;3.80;;;;;;;12.71;69.41;100516.46;130193;1268;107427;-70
2022/06/17 03:10:27;;;;;;;5.90;4.30;;;;;;;12.75;69.37;100516.69;130193;1267;108763;-72
2022/06/17 03:13:36;;;;;;;4.80;4.10;;;;;;;12.82;69.46;100520.45;130263;1267;108740;-71
2022/06/17 03:16:43;;;;;;;4.30;3.90;;;;;;;12.95;69.41;100522.98;130381;1268;108759;-70
2022/06/17 03:19:50;;;;;;;4.30;3.80;;;;;;;13.15;69.41;100527.34;130435;1267;108736;-71
2022/06/17 03:23:00;;;;;;;4.10;3.70;;;;;;;13.46;69.40;100527.27;130438;1268;108793;-71
2022/06/17 03:26:12;;;;;;;3.90;3.10;;;;;;;13.80;69.21;100526.87;130507;1268;108862;-70
2022/06/17 03:29:19;;;;;;;4.20;3.40;;;;;;;14.18;69.00;100526.45;130484;1267;106871;-71
2022/06/17 03:32:31;;;;;;;4.40;3.50;;;;;;;14.55;68.75;100529.45;130467;1268;107607;-70
2022/06/17 03:35:36;;;;;;;;;;;;;;;14.92;68.77;100528.07;130503;1268;108880;-70
2022/06/17 03:38:47;;;;;;;3.50;3.20;;;;;;;15.22;68.60;100529.06;130483;1268;108863;-71
2022/06/17 03:41:57;;;;;;;3.70;3.00;;;;;;;15.57;68.61;100525.13;130291;1267;108869;-71
2022/06/17 03:45:10;;;;;;;3.30;2.90;;;;;;;15.93;68.25;100526.16;130292;1268;108657;-71
2022/06/17 03:48:25;;;;;;;3.90;3.50;;;;;;;16.29;68.21;100529.33;130444;1268;108854;-70
2022/06/17 03:51:32;;;;;;;3.60;3.30;;;;;;;16.65;68.12;100527.63;130438;1268;108756;-72
2022/06/17 03:54:38;;;;;;;3.70;3.30;;;;;;;16.98;67.88;100534.48;130423;1268;107668;-71
2022/06/17 03:57:45;;;;;;;4.00;3.40;;;;;;;17.27;67.64;100537.59;130386;1268;108941;-71
2022/06/17 04:00:57;;;;;;;3.60;3.30;;;;;;;17.54;67.67;100537.30;130302;1268;108720;-71
2022/06/17 04:04:07;;;;;;;5.70;3.70;;;;;;;17.78;67.70;100538.78;130321;1268;107971;-71
2022/06/17 04:07:13;;;;;;;6.40;4.00;;;;;;;17.91;67.57;100533.74;130312;1268;108963;-70
2022/06/17 04:10:23;;;;;;;5.90;4.20;;;;;;;17.98;67.43;100536.98;130473;1268;108827;-71
2022/06/17 04:13:36;;;;;;;7.20;4.30;;;;;;;17.98;67.47;100537.48;130336;1268;108640;-71
2022/06/17 04:16:50;;;;;;;5.80;4.30;;;;;;;18.04;67.80;100541.65;130363;1268;109649;-71
2022/06/17 04:20:15;;;;;;;4.70;4.20;;;;;;;18.15;67.19;100539.58;130414;1267;108762;-71
2022/06/17 04:23:23;;;;;;;4.20;3.20;;;;;;;18.15;67.21;100542.27;130096;1268;108811;-71
2022/06/17 04:26:41;;;;;;;4.30;3.70;;;;;;;18.20;67.01;100545.32;130426;1267;108907;-71
2022/06/17 04:29:56;;;;;;;6.00;3.50;;;;;;;18.27;66.70;100551.88;130422;1268;108650;-71
2022/06/17 04:33:06;;;;;;;4.10;3.60;;;;;;;18.32;66.54;100556.46;130368;1268;108861;-71
2022/06/17 04:36:15;;;;;;;5.00;4.00;;;;;;;18.37;66.17;100557.20;130379;1268;108905;-72
2022/06/17 04:39:27;;;;;;;5.70;3.80;;;;;;;18.37;66.68;100560.11;130383;1268;108677;-70
2022/06/17 04:42:43;;;;;;;;;;;;;;;18.46;66.46;100565.26;130436;1268;109158;-70
2022/06/17 04:46:04;;;;;;;5.60;4.10;;;;;;;18.55;67.03;100563.98;130343;1267;108807;-70
2022/06/17 04:49:18;;;;;;;4.80;4.00;;;;;;;18.73;66.87;100568.29;130406;1267;108615;-69
2022/06/17 04:52:28;;;;;;;5.00;4.30;;;;;;;18.86;66.11;100570.10;130213;1268;108687;-71
2022/06/17 04:55:43;;;;;;;5.80;3.60;;;;;;;18.74;65.59;100575.41;130314;1268;108951;-70
2022/06/17 04:58:57;;;;;;;4.80;3.50;;;;;;;18.63;64.96;100579.48;130189;1268;108910;-70
2022/06/17 05:02:11;;;;;;;5.60;3.50;;;;;;;18.52;65.05;100588.52;130259;1267;108692;-69
2022/06/17 05:05:29;;;;;;;4.00;3.60;;;;;;;18.42;65.42;100583.64;130243;1268;108813;-70
2022/06/17 05:08:38;;;;;;;5.50;4.10;;;;;;;18.41;65.51;100587.87;130326;1268;108715;-69
2022/06/17 05:11:49;;;;;;;6.30;3.90;;;;;;;18.47;65.00;100591.06;130272;1268;108621;-70
2022/06/17 05:15:00;;;;;;;4.40;4.00;;;;;;;18.46;65.35;100592.81;130292;1267;109064;-71
2022/06/17 05:18:06;;;;;;;4.40;3.80;;;;;;;18.48;65.24;100589.99;130231;1268;108658;-71
2022/06/17 05:21:19;;;;;;;3.90;3.20;;;;;;;18.54;65.51;100590.16;130252;1268;108993;-70
2022/06/17 05:24:25;;;;;;;4.50;3.40;;;;;;;18.72;65.43;100592.15;130406;1267;107681;-70
2022/06/17 05:27:31;;;;;;;5.40;3.40;;;;;;;18.82;65.24;100597.65;130164;1268;108852;-70
2022/06/17 05:30:41;;;;;;;3.70;2.60;;;;;;;18.96;63.49;100597.73;130112;1267;108642;-71
2022/06/17 05:33:50;;;;;;;4.40;2.60;;;;;;;18.96;63.12;100596.77;130363;1268;108827;-70
2022/06/17 05:36:56;;;;;;;4.60;2.60;;;;;;;18.93;63.30;100595.55;130245;1268;108864;-68
2022/06/17 05:40:03;;;;;;;5.90;2.50;;;;;;;18.93;63.52;100593.55;130289;1268;107992;-69
2022/06/17 05:43:10;;;;;;;3.60;2.30;;;;;;;19.10;63.70;100595.92;130314;1268;108816;-70
2022/06/17 05:46:16;;;;;;;4.10;2.90;;;;;;;19.01;61.28;100600.17;130342;1268;108635;-68
2022/06/17 05:49:57;;;;;;;6.40;2.90;;;;;;;18.83;64.26;100596.20;129413;1271;108673;-68
2022/06/17 05:53:28;;;;;;;4.70;2.10;;;;;;;19.17;64.90;100597.34;129940;1268;107030;-67
2022/06/17 05:56:38;;;;;;;5.70;1.90;;;;;;;19.54;65.26;100601.88;130365;1268;108689;-70
2022/06/17 05:59:44;;;;;;;4.00;2.60;;;;;;;19.91;64.26;100600.45;130304;1268;109121;-70
2022/06/17 06:02:55;;;;;;;4.80;2.20;;;;;;;19.95;62.78;100605.10;130637;1267;108830;-70
2022/06/17 06:06:03;;;;;;;4.80;3.10;;;;;;;19.85;62.13;100610.58;129959;1268;108863;-68
2022/06/17 06:09:09;;;;;;;5.80;3.40;;;;;;;19.50;62.34;100608.00;130302;1268;108685;-68
2022/06/17 06:12:15;;;;;;;3.40;2.50;;;;;;;19.42;62.52;100607.51;130109;1268;108619;-69
2022/06/17 06:15:21;;;;;;;2.70;2.30;;;;;;;19.56;63.74;100604.27;130145;1268;108756;-69
2022/06/17 06:18:47;;;;;;;6.40;2.80;;;;;;;19.78;62.49;100607.56;130236;1268;108716;-69
2022/06/17 06:22:01;;;;;;;4.50;3.00;;;;;;;19.62;61.99;100606.95;130288;1268;108670;-70
2022/06/17 06:25:08;;;;;;;7.00;3.50;;;;;;;19.43;62.09;100604.29;130262;1268;108928;-69
2022/06/17 06:28:16;;;;;;;6.00;2.30;;;;;;;19.29;62.44;100599.46;130246;1268;108753;-69
2022/06/17 06:31:26;;;;;;;3.20;2.70;;;;;;;19.45;63.69;100601.73;130234;1269;108489;-69
2022/06/17 06:34:32;;;;;;;5.10;3.30;;;;;;;19.54;61.53;100604.59;130235;1268;108688;-70
2022/06/17 06:37:37;;;;;;;4.20;2.40;;;;;;;19.31;62.64;100606.42;130237;1268;108876;-69
2022/06/17 06:40:44;;;;;;;4.60;3.10;;;;;;;19.50;63.61;100603.86;130197;1268;108882;-69
2022/06/17 06:43:51;;;;;;;4.00;2.40;;;;;;;19.65;63.41;100606.46;130196;1268;108684;-70
2022/06/17 06:47:19;;;;;;;3.10;2.10;;;;;;;19.85;63.39;100605.78;130010;1268;108805;-68
2022/06/17 06:50:33;;;;;;;2.50;2.00;;;;;;;20.11;62.69;100602.15;130152;1268;108848;-68
2022/06/17 06:53:38;;;;;;;4.20;3.00;;;;;;;20.37;62.06;100602.61;130099;1268;108618;-69
2022/06/17 06:56:44;;;;;;;2.80;2.20;;;;;;;20.31;60.15;100610.02;130371;1268;107714;-67
2022/06/17 06:59:50;;;;;;;5.50;2.10;;;;;;;20.09;61.43;100610.10;130210;1268;108918;-68
2022/06/17 07:02:56;;;;;;;2.70;2.30;;;;;;;20.21;60.84;100613.37;130185;1268;108723;-69
2022/06/17 07:06:05;;;;;;;3.10;2.20;;;;;;;20.19;59.93;100611.02;130253;1268;108951;-69
2022/06/17 07:09:13;;;;;;;3.30;2.60;;;;;;;19.98;59.69;100614.89;130190;1268;108662;-69
2022/06/17 07:12:18;;;;;;;2.20;2.00;;;;;;;20.03;60.08;100607.85;130160;1271;108822;-68
2022/06/17 07:15:24;;;;;;;3.30;2.80;;;;;;;20.17;59.66;100610.66;130254;1268;107655;-68
2022/06/17 07:18:32;;;;;;;2.80;2.50;;;;;;;20.09;60.30;100604.23;130266;1268;108870;-70
2022/06/17 07:21:37;;;;;;;5.60;3.10;;;;;;;20.14;58.92;100606.27;130271;1268;108777;-71
2022/06/17 07:24:42;;;;;;;2.40;1.90;;;;;;;19.88;59.87;100609.33;130254;1268;108644;-71
2022/06/17 07:27:48;;;;;;;2.90;2.40;;;;;;;19.96;59.12;100612.17;130148;1268;108779;-69
2022/06/17 07:30:55;;;;;;;3.30;2.60;;;;;;;19.81;58.83;100613.39;131363;1268;108659;-68
2022/06/17 07:34:01;;;;;;;2.70;2.30;;;;;;;19.74;58.42;100614.30;130272;1268;108846;-68
2022/06/17 07:40:30;;;;;;;4.10;2.30;;;;;;;19.84;58.93;100606.32;130144;1267;108718;-72
2022/06/17 07:43:35;;;;;;;3.40;2.10;;;;;;;20.07;58.64;100601.73;130429;1268;109843;-73
2022/06/17 07:46:41;;;;;;;3.40;2.40;;;;;;;20.46;59.40;100606.90;130355;1268;108822;-68
2022/06/17 07:49:46;;;;;;;4.60;2.30;;;;;;;20.49;57.46;100612.33;130402;1268;108785;-72
2022/06/17 07:52:52;;;;;;;5.60;2.50;;;;;;;20.29;57.61;100614.32;130325;1268;108733;-71
2022/06/17 07:55:58;;;;;;;4.80;2.30;;;;;;;20.53;58.87;100608.19;130305;1268;108877;-73
2022/06/17 07:59:03;;;;;;;3.90;2.40;;;;;;;20.50;57.66;100621.37;130355;1268;108629;-68
2022/06/17 08:02:09;;;;;;;4.40;2.50;;;;;;;20.08;57.19;100629.77;130177;1268;108777;-69
2022/06/17 08:05:14;;;;;;;3.30;2.30;;;;;;;19.95;58.58;100630.91;130157;1268;107643;-70
2022/06/17 08:08:22;;;;;;;3.90;2.60;;;;;;;20.20;58.55;100631.24;130170;1268;108610;-69
2022/06/17 08:11:27;;;;;;;4.60;2.40;;;;;;;20.29;57.05;100621.21;130186;1268;108235;-69
2022/06/17 08:14:33;;;;;;;3.40;2.70;;;;;;;20.23;57.29;100620.70;130143;1268;108650;-69
2022/06/17 08:17:38;;;;;;;4.80;2.30;;;;;;;19.99;56.57;100628.81;130206;1268;108727;-72
2022/06/17 08:20:44;;;;;;;2.90;2.20;;;;;;;19.67;56.52;100627.45;130316;1268;108656;-71
2022/06/17 08:23:49;;;;;;;3.70;2.40;;;;;;;19.52;56.70;100627.04;130286;1268;108810;-72
2022/06/17 08:26:54;;;;;;;3.40;2.30;;;;;;;19.50;57.01;100623.27;130310;1268;108645;-72
2022/06/17 08:29:59;;;;;;;2.70;1.70;;;;;;;19.60;56.60;100624.02;130301;1268;107393;-68
2022/06/17 08:33:05;;;;;;;2.90;2.30;;;;;;;19.64;55.64;100626.27;130151;1268;108659;-68
2022/06/17 08:36:12;;;;;;;2.30;1.00;;;;;;;19.59;54.99;100631.72;130188;1268;109026;-74
2022/06/17 08:39:18;;;;;;;2.40;1.50;;;;;;;19.53;54.25;100633.03;130304;1268;108640;-71
2022/06/17 08:42:39;;;;;;;2.00;1.30;;;;;;;19.67;55.36;100636.08;130146;1268;108407;-69
2022/06/17 08:45:54;;;;;;;1.80;1.30;;;;;;;19.80;54.95;100641.67;130200;1268;108751;-71
2022/06/17 08:49:35;;;;;;;2.10;1.00;;;;;;;19.91;54.77;100641.46;130235;1268;108880;-68
2022/06/17 08:53:02;;;;;;;2.40;1.10;;;;;;;19.86;52.95;100648.28;130382;1268;108897;-70
2022/06/17 08:56:17;;;;;;;2.20;1.20;;;;;;;19.87;53.79;100655.40;130193;1268;107203;-68
2022/06/17 08:59:37;;;;;;;2.20;1.20;;;;;;;19.92;53.33;100652.71;130163;1268;108649;-72
2022/06/17 09:03:24;;;;;;;1.50;1.30;;;;;;;20.12;53.25;100655.24;130216;1268;108839;-71
2022/06/17 09:06:42;;;;;;;3.10;1.40;;;;;;;20.28;53.29;100657.09;129628;1274;109230;-69
2022/06/17 09:10:14;;;;;;;2.60;1.20;;;;;;;20.49;54.60;100651.48;130145;1268;107669;-65
2022/06/17 09:13:31;;;;;;;1.60;1.00;;;;;;;20.77;53.42;100664.48;130215;1268;108969;-68
2022/06/17 09:16:45;;;;;;;1.30;1.20;;;;;;;20.69;52.61;100667.22;130184;1268;108808;-67
2022/06/17 09:19:56;;;;;;;1.40;1.10;;;;;;;20.66;52.85;100664.81;130195;1268;108845;-66
2022/06/17 09:23:05;;;;;;;1.70;1.00;;;;;;;20.57;52.52;100667.57;130180;1268;108887;-67
2022/06/17 09:26:16;;;;;;;1.40;1.10;;;;;;;20.48;51.05;100675.55;130287;1268;108267;-69
2022/06/17 09:29:28;;;;;;;1.80;1.10;;;;;;;20.45;53.18;100670.53;130206;1268;108742;-68
2022/06/17 09:32:38;;;;;;;2.50;1.10;;;;;;;20.75;52.98;100672.02;130194;1268;108458;-67
2022/06/17 09:35:49;;;;;;;2.10;1.30;;;;;;;20.78;52.79;100673.77;131010;1267;108599;-68
2022/06/17 09:38:59;;;;;;;1.80;0.90;;;;;;;20.92;52.36;100678.77;130064;1267;108938;-66
2022/06/17 09:42:11;;;;;;;1.50;1.00;;;;;;;20.89;52.53;100678.55;130072;1268;108828;-67
2022/06/17 09:45:26;;;;;;;3.40;1.40;;;;;;;21.05;52.49;100676.78;130115;1268;108818;-67
2022/06/17 09:48:41;;;;;;;1.20;0.80;;;;;;;20.95;51.91;100683.96;130258;1268;108319;-69
2022/06/17 09:51:52;;;;;;;1.30;0.80;;;;;;;20.83;52.21;100685.49;130152;1268;108762;-67
2022/06/17 09:55:02;;;;;;;2.10;1.40;;;;;;;20.86;52.04;100689.58;130162;1267;108708;-70
2022/06/17 09:58:12;;;;;;;1.90;1.10;;;;;;;20.85;51.83;100689.41;130154;1268;108910;-68
2022/06/17 10:01:19;;;;;;;1.30;0.90;;;;;;;20.95;51.68;100689.95;130102;1268;108452;-69
2022/06/17 10:04:26;;;;;;;2.40;1.00;;;;;;;20.96;51.47;100685.37;130123;1268;108896;-67
2022/06/17 10:07:40;;;;;;;3.70;1.20;;;;;;;20.75;51.86;100692.50;130213;1268;108696;-66
2022/06/17 10:10:54;;;;;;;1.20;0.90;;;;;;;20.42;52.44;100694.55;130105;1268;108698;-66
2022/06/17 10:14:13;;;;;;;1.40;1.10;;;;;;;20.13;52.29;100696.14;130196;1268;108671;-69
2022/06/17 10:20:56;;;;;;;2.00;1.10;;;;;;;20.80;53.05;100688.96;130085;1268;108689;-68
2022/06/17 10:24:09;;;;;;;1.00;0.80;;;;;;;21.17;52.44;100685.80;130188;1268;107385;-68
2022/06/17 10:27:31;;;;;;;1.50;1.10;;;;;;;21.43;50.70;100684.19;130363;1268;108696;-70
2022/06/17 10:30:42;;;;;;;2.00;1.20;;;;;;;21.66;52.13;100680.36;130151;1268;108747;-69
2022/06/17 10:33:48;;;;;;;1.20;0.80;;;;;;;21.83;51.01;100678.54;130169;1268;108740;-68
2022/06/17 10:36:56;;;;;;;1.10;0.90;;;;;;;22.07;51.43;100668.73;130081;1268;108978;-69
2022/06/17 10:40:04;;;;;;;2.40;1.10;;;;;;;22.18;50.96;100667.65;130171;1268;108701;-69
2022/06/17 10:43:14;;;;;;;2.30;0.80;;;;;;;22.40;50.32;100673.71;130229;1267;108880;-68
2022/06/17 10:46:24;;;;;;;1.60;0.80;;;;;;;22.03;48.48;100675.40;130235;1268;108637;-68
2022/06/17 10:49:35;;;;;;;1.30;0.80;;;;;;;21.75;49.61;100674.39;131058;1268;108685;-72
2022/06/17 10:52:44;;;;;;;1.40;0.90;;;;;;;21.68;48.72;100676.39;130688;1268;108006;-69
2022/06/17 10:55:53;;;;;;;1.10;0.80;;;;;;;21.53;49.71;100673.41;130507;1268;108766;-71
2022/06/17 10:59:01;;;;;;;1.60;0.80;;;;;;;21.50;49.05;100675.95;131451;1267;108390;-70
2022/06/17 11:02:23;;;;;;;1.80;0.90;;;;;;;21.26;49.41;100674.17;130293;1267;108628;-69
2022/06/17 11:05:34;;;;;;;0.80;0.60;;;;;;;21.04;49.89;100678.79;130568;1268;109047;-73
2022/06/17 11:08:44;;;;;;;1.00;0.70;;;;;;;21.24;50.01;100670.71;130247;1268;109049;-73
2022/06/17 11:12:04;;;;;;;0.70;0.70;;;;;;;21.56;49.61;100670.17;130279;1268;108656;-73
2022/06/17 11:15:25;;;;;;;4.00;1.00;;;;;;;21.74;49.32;100670.89;130254;1268;108637;-68
2022/06/17 11:18:35;;;;;;;1.70;0.80;;;;;;;21.88;47.19;100670.39;130093;1268;108735;-68
2022/06/17 11:21:48;;;;;;;1.00;0.80;;;;;;;22.06;47.76;100668.70;130290;1267;109348;-68
2022/06/17 11:24:56;;;;;;;1.40;0.80;;;;;;;22.07;46.82;100669.70;130093;1268;108884;-69
2022/06/17 11:28:12;;;;;;;1.60;0.80;;;;;;;21.96;46.30;100673.20;130323;1268;109025;-69
2022/06/17 11:31:33;;;;;;;1.30;0.90;;;;;;;21.82;47.53;100670.65;130146;1268;109107;-69
2022/06/17 11:34:50;;;;;;;1.40;0.80;;;;;;;21.79;47.32;100674.70;130491;1267;108766;-69
2022/06/17 11:37:58;;;;;;;1.60;0.80;;;;;;;21.77;46.66;100674.46;131557;1267;108819;-70
2022/06/17 11:41:04;;;;;;;2.40;0.90;;;;;;;21.83;47.93;100674.05;130203;1268;108753;-67
2022/06/17 11:44:12;;;;;;;2.00;0.90;;;;;;;21.81;47.03;100681.84;130149;1268;108725;-67
2022/06/17 11:47:22;;;;;;;1.20;0.70;;;;;;;21.68;47.81;100683.98;130242;1268;107369;-70
2022/06/17 11:50:31;;;;;;;1.00;0.90;;;;;;;21.69;47.94;100683.58;130138;1268;108907;-69
2022/06/17 11:53:46;;;;;;;1.80;0.90;;;;;;;21.83;47.70;100679.61;130188;1268;108717;-68
2022/06/17 11:56:52;;;;;;;3.60;1.00;;;;;;;21.94;46.79;100679.27;130154;1268;108877;-68
2022/06/17 12:00:01;;;;;;;1.20;0.90;;;;;;;22.04;46.97;100681.30;130237;1267;109844;-69
2022/06/17 12:03:07;;;;;;;2.00;0.90;;;;;;;22.20;46.34;100682.85;130186;1267;108678;-69
2022/06/17 12:06:24;;;;;;;1.00;0.60;;;;;;;22.20;46.51;100684.04;130196;1268;108664;-68
2022/06/17 12:09:36;;;;;;;3.30;0.90;;;;;;;22.28;47.04;100683.84;130146;1267;108749;-70
2022/06/17 12:12:42;;;;;;;2.70;1.00;;;;;;;22.36;46.11;100687.42;130094;1268;108620;-70
2022/06/17 12:15:50;;;;;;;1.10;0.70;;;;;;;22.31;47.06;100687.42;130360;1267;108894;-74
2022/06/17 12:18:58;;;;;;;1.50;0.80;;;;;;;22.35;46.47;100681.45;130462;1268;107064;-72
2022/06/17 12:22:08;;;;;;;1.70;0.80;;;;;;;22.35;46.90;100680.33;130352;1268;108732;-72
2022/06/17 12:25:22;;;;;;;2.00;0.70;;;;;;;22.56;46.29;100680.95;130364;1267;108016;-72
2022/06/17 12:28:40;;;;;;;2.80;0.90;;;;;;;22.66;45.32;100686.65;130392;1267;108671;-70
2022/06/17 12:31:51;;;;;;;1.60;1.00;;;;;;;22.52;45.75;100684.50;130446;1268;108732;-72
2022/06/17 12:35:03;;;;;;;2.60;0.80;;;;;;;22.52;46.15;100683.65;130512;1267;108968;-72
2022/06/17 12:38:16;;;;;;;2.10;0.80;;;;;;;22.71;46.27;100674.64;130540;1268;108417;-72
2022/06/17 12:41:30;;;;;;;2.40;0.70;;;;;;;22.96;46.82;100671.19;130385;1267;108862;-73
2022/06/17 12:44:52;;;;;;;1.10;0.80;;;;;;;23.15;45.15;100676.36;130493;1267;109139;-71
2022/06/17 12:48:11;;;;;;;3.60;1.10;;;;;;;23.07;44.87;100670.63;130448;1267;108674;-70
2022/06/17 12:54:57;;;;;;;1.20;0.70;;;;;;;23.35;46.09;100665.08;130504;1268;108833;-71
2022/06/17 12:58:13;;;;;;;1.30;0.70;;;;;;;23.53;45.03;100668.05;130441;1267;107647;-73
2022/06/17 13:01:26;;;;;;;3.00;0.90;;;;;;;23.49;44.30;100670.86;130439;1267;108735;-71
2022/06/17 13:04:43;;;;;;;2.80;0.90;;;;;;;23.39;44.29;100665.83;130464;1268;108768;-70
2022/06/17 13:08:14;;;;;;;0.90;0.60;;;;;;;23.22;43.37;100669.43;130312;1268;108693;-69
2022/06/17 13:11:29;;;;;;;1.60;0.70;;;;;;;23.05;44.39;100668.92;130392;1267;108883;-72
2022/06/17 13:14:45;;;;;;;3.80;0.90;;;;;;;23.01;44.31;100667.14;130462;1268;108676;-72
2022/06/17 13:17:58;;;;;;;0.90;0.70;;;;;;;22.90;43.56;100667.73;130641;1267;108666;-73
2022/06/17 13:21:08;;;;;;;2.10;0.70;;;;;;;22.65;43.81;100662.80;130381;1267;108782;-76
2022/06/17 13:24:23;;;;;;;1.30;0.70;;;;;;;22.60;44.35;100658.71;130469;1267;108951;-67
2022/06/17 13:27:36;;;;;;;4.50;1.20;;;;;;;22.66;44.61;100653.91;129903;1267;108851;-70
2022/06/17 13:30:46;;;;;;;1.90;0.80;;;;;;;22.62;44.37;100655.91;130146;1268;108833;-68
2022/06/17 13:33:56;;;;;;;1.70;1.00;;;;;;;22.55;43.81;100660.80;130120;1267;108690;-69
2022/06/17 13:37:08;;;;;;;1.80;1.10;;;;;;;22.43;44.06;100660.60;130248;1268;108688;-69
2022/06/17 13:40:20;;;;;;;1.90;1.10;;;;;;;22.28;43.95;100661.17;130223;1267;108619;-71
2022/06/17 13:43:27;;;;;;;;;;;;;;;22.16;43.94;100657.34;130553;1267;108685;-70
2022/06/17 13:46:41;;;;;;;2.10;1.10;;;;;;;22.09;44.21;100648.77;130232;1268;108570;-68
2022/06/17 13:49:53;;;;;;;2.30;0.90;;;;;;;22.03;44.25;100652.25;130164;1268;108718;-64
2022/06/17 13:53:08;;;;;;;1.10;0.80;;;;;;;22.03;44.23;100650.33;130283;1268;108672;-71
2022/06/17 13:56:21;;;;;;;2.00;0.90;;;;;;;22.00;43.97;100649.01;130132;1267;108888;-68
2022/06/17 13:59:35;;;;;;;1.50;0.90;;;;;;;22.02;43.73;100650.08;130197;1268;108894;-68
2022/06/17 14:02:55;;;;;;;1.40;0.80;;;;;;;21.94;43.11;100641.68;130245;1268;108884;-69
2022/06/17 14:06:11;;;;;;;1.10;0.80;;;;;;;21.94;43.89;100640.17;130181;1268;108743;-68
2022/06/17 14:09:31;;;;;;;0.90;0.70;;;;;;;22.00;43.96;100637.05;130240;1267;108791;-68
2022/06/17 14:12:46;;;;;;;2.80;1.10;;;;;;;22.06;43.27;100636.67;130255;1268;108702;-70
2022/06/17 14:15:55;;;;;;;2.10;0.90;;;;;;;22.06;42.50;100641.52;130246;1268;108227;-70
2022/06/17 14:19:04;;;;;;;1.60;1.00;;;;;;;21.97;42.75;100638.70;130315;1268;108452;-71
2022/06/17 14:22:18;;;;;;;2.70;1.10;;;;;;;21.96;43.65;100637.70;130098;1267;108861;-70
2022/06/17 14:25:45;;;;;;;1.20;0.80;;;;;;;22.08;43.48;100640.39;130201;1268;108777;-69
2022/06/17 14:29:14;;;;;;;1.60;0.90;;;;;;;22.23;43.46;100639.86;130272;1268;108800;-68
2022/06/17 14:32:55;;;;;;;2.10;1.00;;;;;;;22.27;42.97;100631.86;130196;1268;108884;-69
2022/06/17 14:36:01;;;;;;;2.00;0.90;;;;;;;22.34;43.64;100623.79;130553;1268;108654;-74
2022/06/17 14:39:20;;;;;;;2.70;0.80;;;;;;;22.40;43.33;100624.20;130519;1268;109186;-72